sensor_id;sensor_type;location;lat;lon;timestamp;temperature;humidity
16700;DHT22;8466;52.286;21.124;2023-02-23T00:01:25;0.00;99.90
16700;DHT22;8466;52.286;21.124;2023-02-23T00:03:54;0.00;99.90
16700;DHT22;8466;52.286;21.124;2023-02-23T00:06:26;0.00;99.90
16700;DHT22;8466;52.286;21.124;2023-02-23T00:08:56;0.10;99.90
16700;DHT22;8466;52.286;21.124;2023-02-23T00:11:27;0.20;99.90
16700;DHT22;8466;52.286;21.124;2023-02-23T00:13:56;0.20;99.90
16700;DHT22;8466;52.286;21.124;2023-02-23T00:16:25;0.10;99.90
16700;DHT22;8466;52.286;21.124;2023-02-23T00:18:56;0.10;99.90
16700;DHT22;8466;52.286;21.124;2023-02-23T00:21:29;0.00;99.90
16700;DHT22;8466;52.286;21.124;2023-02-23T00:24:00;0.00;99.90
16700;DHT22;8466;52.286;21.124;2023-02-23T00:26:30;0.00;99.90
16700;DHT22;8466;52.286;21.124;2023-02-23T00:29:02;0.00;99.90
16700;DHT22;8466;52.286;21.124;2023-02-23T00:31:32;0.00;99.90
16700;DHT22;8466;52.286;21.124;2023-02-23T00:34:02;-0.10;99.90
16700;DHT22;8466;52.286;21.124;2023-02-23T00:36:34;-0.10;99.90
16700;DHT22;8466;52.286;21.124;2023-02-23T00:39:05;-0.10;99.90
16700;DHT22;8466;52.286;21.124;2023-02-23T00:41:44;-0.20;99.90
16700;DHT22;8466;52.286;21.124;2023-02-23T00:44:13;-0.20;99.90
16700;DHT22;8466;52.286;21.124;2023-02-23T00:46:43;-0.30;99.90
16700;DHT22;8466;52.286;21.124;2023-02-23T00:49:15;-0.40;99.90
16700;DHT22;8466;52.286;21.124;2023-02-23T00:51:45;-0.40;99.90
16700;DHT22;8466;52.286;21.124;2023-02-23T00:54:15;-0.30;99.90
16700;DHT22;8466;52.286;21.124;2023-02-23T00:56:44;-0.30;99.90
16700;DHT22;8466;52.286;21.124;2023-02-23T00:59:13;-0.20;99.90
16700;DHT22;8466;52.286;21.124;2023-02-23T01:01:42;-0.20;99.90
16700;DHT22;8466;52.286;21.124;2023-02-23T01:04:12;-0.20;99.90
16700;DHT22;8466;52.286;21.124;2023-02-23T01:06:41;-0.20;99.90
16700;DHT22;8466;52.286;21.124;2023-02-23T01:09:15;-0.20;99.90
16700;DHT22;8466;52.286;21.124;2023-02-23T01:11:54;-0.20;99.90
16700;DHT22;8466;52.286;21.124;2023-02-23T01:14:23;-0.20;99.90
16700;DHT22;8466;52.286;21.124;2023-02-23T01:16:52;-0.20;99.90
16700;DHT22;8466;52.286;21.124;2023-02-23T01:19:21;-0.20;99.90
16700;DHT22;8466;52.286;21.124;2023-02-23T01:21:50;-0.20;99.90
16700;DHT22;8466;52.286;21.124;2023-02-23T01:24:20;-0.20;99.90
16700;DHT22;8466;52.286;21.124;2023-02-23T01:26:48;-0.10;99.90
16700;DHT22;8466;52.286;21.124;2023-02-23T01:29:17;-0.10;99.90
16700;DHT22;8466;52.286;21.124;2023-02-23T01:31:47;-0.10;99.90
16700;DHT22;8466;52.286;21.124;2023-02-23T01:34:18;-0.10;99.90
16700;DHT22;8466;52.286;21.124;2023-02-23T01:36:48;-0.10;99.90
16700;DHT22;8466;52.286;21.124;2023-02-23T01:39:19;0.00;99.90
16700;DHT22;8466;52.286;21.124;2023-02-23T01:41:48;0.00;99.90
16700;DHT22;8466;52.286;21.124;2023-02-23T01:47:26;0.00;99.90
16700;DHT22;8466;52.286;21.124;2023-02-23T01:49:55;0.00;99.90
16700;DHT22;8466;52.286;21.124;2023-02-23T01:52:24;0.10;99.90
16700;DHT22;8466;52.286;21.124;2023-02-23T01:54:55;0.10;99.90
16700;DHT22;8466;52.286;21.124;2023-02-23T01:57:24;0.00;99.90
16700;DHT22;8466;52.286;21.124;2023-02-23T01:59:53;0.00;99.90
16700;DHT22;8466;52.286;21.124;2023-02-23T02:02:25;0.10;99.90
16700;DHT22;8466;52.286;21.124;2023-02-23T02:05:01;0.10;99.90
16700;DHT22;8466;52.286;21.124;2023-02-23T02:07:32;0.10;99.90
16700;DHT22;8466;52.286;21.124;2023-02-23T02:10:04;0.00;99.90
16700;DHT22;8466;52.286;21.124;2023-02-23T02:13:07;0.00;99.90
16700;DHT22;8466;52.286;21.124;2023-02-23T02:15:50;0.00;99.90
16700;DHT22;8466;52.286;21.124;2023-02-23T02:18:27;0.00;99.90
16700;DHT22;8466;52.286;21.124;2023-02-23T02:27:38;-0.10;99.90
16700;DHT22;8466;52.286;21.124;2023-02-23T02:30:34;-0.10;99.90
16700;DHT22;8466;52.286;21.124;2023-02-23T02:33:28;-0.10;99.90
16700;DHT22;8466;52.286;21.124;2023-02-23T02:39:39;-0.10;99.90
16700;DHT22;8466;52.286;21.124;2023-02-23T02:42:17;-0.10;99.90
16700;DHT22;8466;52.286;21.124;2023-02-23T02:44:54;-0.10;99.90
16700;DHT22;8466;52.286;21.124;2023-02-23T02:47:28;-0.20;99.90
16700;DHT22;8466;52.286;21.124;2023-02-23T02:50:03;-0.20;99.90
16700;DHT22;8466;52.286;21.124;2023-02-23T02:52:37;-0.20;99.90
16700;DHT22;8466;52.286;21.124;2023-02-23T02:55:13;-0.30;99.90
16700;DHT22;8466;52.286;21.124;2023-02-23T02:57:44;-0.50;99.90
16700;DHT22;8466;52.286;21.124;2023-02-23T03:00:17;-0.60;99.90
16700;DHT22;8466;52.286;21.124;2023-02-23T03:03:03;-0.70;99.90
16700;DHT22;8466;52.286;21.124;2023-02-23T03:05:51;-0.80;99.90
16700;DHT22;8466;52.286;21.124;2023-02-23T03:08:45;-0.80;99.90
16700;DHT22;8466;52.286;21.124;2023-02-23T03:11:38;-0.90;99.90
16700;DHT22;8466;52.286;21.124;2023-02-23T03:14:30;-0.70;99.90
16700;DHT22;8466;52.286;21.124;2023-02-23T03:17:28;-0.50;99.90
16700;DHT22;8466;52.286;21.124;2023-02-23T03:20:20;-0.40;99.90
16700;DHT22;8466;52.286;21.124;2023-02-23T03:23:14;-0.30;99.90
16700;DHT22;8466;52.286;21.124;2023-02-23T03:26:05;-0.30;99.90
16700;DHT22;8466;52.286;21.124;2023-02-23T03:29:01;-0.40;99.90
16700;DHT22;8466;52.286;21.124;2023-02-23T03:31:52;-0.50;99.90
16700;DHT22;8466;52.286;21.124;2023-02-23T03:34:44;-0.60;99.90
16700;DHT22;8466;52.286;21.124;2023-02-23T03:37:36;-0.70;99.90
16700;DHT22;8466;52.286;21.124;2023-02-23T03:40:27;-0.80;99.90
16700;DHT22;8466;52.286;21.124;2023-02-23T03:43:16;-0.90;99.90
16700;DHT22;8466;52.286;21.124;2023-02-23T03:46:08;-1.10;99.90
16700;DHT22;8466;52.286;21.124;2023-02-23T03:48:58;-1.20;99.90
16700;DHT22;8466;52.286;21.124;2023-02-23T03:51:48;-1.30;99.90
16700;DHT22;8466;52.286;21.124;2023-02-23T03:54:48;-1.40;99.90
16700;DHT22;8466;52.286;21.124;2023-02-23T03:57:38;-1.50;99.90
16700;DHT22;8466;52.286;21.124;2023-02-23T04:00:28;-1.50;99.90
16700;DHT22;8466;52.286;21.124;2023-02-23T04:03:18;-1.60;99.90
16700;DHT22;8466;52.286;21.124;2023-02-23T04:06:06;-1.70;99.90
16700;DHT22;8466;52.286;21.124;2023-02-23T04:08:56;-1.70;99.90
16700;DHT22;8466;52.286;21.124;2023-02-23T04:11:47;-1.80;99.90
16700;DHT22;8466;52.286;21.124;2023-02-23T04:14:39;-1.90;99.90
16700;DHT22;8466;52.286;21.124;2023-02-23T04:17:08;-1.90;99.90
16700;DHT22;8466;52.286;21.124;2023-02-23T04:19:37;-2.00;99.90
16700;DHT22;8466;52.286;21.124;2023-02-23T04:22:06;-2.00;99.90
16700;DHT22;8466;52.286;21.124;2023-02-23T04:24:35;-2.00;99.90
16700;DHT22;8466;52.286;21.124;2023-02-23T04:27:03;-1.80;99.90
16700;DHT22;8466;52.286;21.124;2023-02-23T04:29:32;-1.70;99.90
16700;DHT22;8466;52.286;21.124;2023-02-23T04:32:01;-1.50;99.90
16700;DHT22;8466;52.286;21.124;2023-02-23T04:34:29;-1.40;99.90
16700;DHT22;8466;52.286;21.124;2023-02-23T04:37:00;-1.20;99.90
16700;DHT22;8466;52.286;21.124;2023-02-23T04:39:28;-1.10;99.90
16700;DHT22;8466;52.286;21.124;2023-02-23T04:41:57;-1.00;99.90
16700;DHT22;8466;52.286;21.124;2023-02-23T04:44:28;-0.90;99.90
16700;DHT22;8466;52.286;21.124;2023-02-23T04:46:57;-0.80;99.90
16700;DHT22;8466;52.286;21.124;2023-02-23T04:49:26;-0.70;99.90
16700;DHT22;8466;52.286;21.124;2023-02-23T04:51:54;-0.60;99.90
16700;DHT22;8466;52.286;21.124;2023-02-23T04:54:24;-0.50;99.90
16700;DHT22;8466;52.286;21.124;2023-02-23T04:56:53;-0.40;99.90
16700;DHT22;8466;52.286;21.124;2023-02-23T04:59:22;-0.30;99.90
16700;DHT22;8466;52.286;21.124;2023-02-23T05:01:50;-0.30;99.90
16700;DHT22;8466;52.286;21.124;2023-02-23T05:04:19;-0.20;99.90
16700;DHT22;8466;52.286;21.124;2023-02-23T05:06:48;-0.20;99.90
16700;DHT22;8466;52.286;21.124;2023-02-23T05:09:16;-0.10;99.90
16700;DHT22;8466;52.286;21.124;2023-02-23T05:11:46;-0.20;99.90
16700;DHT22;8466;52.286;21.124;2023-02-23T05:14:15;-0.10;99.90
16700;DHT22;8466;52.286;21.124;2023-02-23T05:16:43;-0.20;99.90
16700;DHT22;8466;52.286;21.124;2023-02-23T05:19:12;-0.20;99.90
16700;DHT22;8466;52.286;21.124;2023-02-23T05:21:41;-0.20;99.90
16700;DHT22;8466;52.286;21.124;2023-02-23T05:24:10;-0.10;99.90
16700;DHT22;8466;52.286;21.124;2023-02-23T05:26:38;-0.10;99.90
16700;DHT22;8466;52.286;21.124;2023-02-23T05:29:08;-0.10;99.90
16700;DHT22;8466;52.286;21.124;2023-02-23T05:31:37;0.00;99.90
16700;DHT22;8466;52.286;21.124;2023-02-23T05:34:05;-0.10;99.90
16700;DHT22;8466;52.286;21.124;2023-02-23T05:36:34;-0.10;99.90
16700;DHT22;8466;52.286;21.124;2023-02-23T05:39:03;0.00;99.90
16700;DHT22;8466;52.286;21.124;2023-02-23T05:41:31;0.10;99.90
16700;DHT22;8466;52.286;21.124;2023-02-23T05:44:00;0.00;99.90
16700;DHT22;8466;52.286;21.124;2023-02-23T05:46:30;0.00;99.90
16700;DHT22;8466;52.286;21.124;2023-02-23T05:48:59;0.10;99.90
16700;DHT22;8466;52.286;21.124;2023-02-23T05:51:31;0.10;99.90
16700;DHT22;8466;52.286;21.124;2023-02-23T05:53:59;0.20;99.90
16700;DHT22;8466;52.286;21.124;2023-02-23T05:56:28;0.20;99.90
16700;DHT22;8466;52.286;21.124;2023-02-23T05:58:57;0.30;99.90
16700;DHT22;8466;52.286;21.124;2023-02-23T06:01:26;0.30;99.90
16700;DHT22;8466;52.286;21.124;2023-02-23T06:03:56;0.40;99.90
16700;DHT22;8466;52.286;21.124;2023-02-23T06:06:25;0.40;99.90
16700;DHT22;8466;52.286;21.124;2023-02-23T06:08:54;0.40;99.90
16700;DHT22;8466;52.286;21.124;2023-02-23T06:11:23;0.40;99.90
16700;DHT22;8466;52.286;21.124;2023-02-23T06:13:52;0.40;99.90
16700;DHT22;8466;52.286;21.124;2023-02-23T06:16:21;0.50;99.90
16700;DHT22;8466;52.286;21.124;2023-02-23T06:18:50;0.50;99.90
16700;DHT22;8466;52.286;21.124;2023-02-23T06:21:20;0.50;99.90
16700;DHT22;8466;52.286;21.124;2023-02-23T06:23:49;0.60;99.90
16700;DHT22;8466;52.286;21.124;2023-02-23T06:26:18;0.70;99.90
16700;DHT22;8466;52.286;21.124;2023-02-23T06:28:47;0.70;99.90
16700;DHT22;8466;52.286;21.124;2023-02-23T06:31:16;0.70;99.90
16700;DHT22;8466;52.286;21.124;2023-02-23T06:33:45;0.70;99.90
16700;DHT22;8466;52.286;21.124;2023-02-23T06:36:14;0.80;99.90
16700;DHT22;8466;52.286;21.124;2023-02-23T06:38:45;0.90;99.90
16700;DHT22;8466;52.286;21.124;2023-02-23T06:41:13;1.00;99.90
16700;DHT22;8466;52.286;21.124;2023-02-23T06:43:42;1.00;99.90
16700;DHT22;8466;52.286;21.124;2023-02-23T06:46:10;1.00;99.90
16700;DHT22;8466;52.286;21.124;2023-02-23T06:48:39;1.00;99.90
16700;DHT22;8466;52.286;21.124;2023-02-23T06:51:08;1.00;99.90
16700;DHT22;8466;52.286;21.124;2023-02-23T06:53:37;1.10;99.90
16700;DHT22;8466;52.286;21.124;2023-02-23T06:56:07;1.10;99.90
16700;DHT22;8466;52.286;21.124;2023-02-23T06:58:38;1.00;99.90
16700;DHT22;8466;52.286;21.124;2023-02-23T07:01:06;1.10;99.90
16700;DHT22;8466;52.286;21.124;2023-02-23T07:03:36;1.00;99.90
16700;DHT22;8466;52.286;21.124;2023-02-23T07:06:04;1.10;99.90
16700;DHT22;8466;52.286;21.124;2023-02-23T07:08:34;1.10;99.90
16700;DHT22;8466;52.286;21.124;2023-02-23T07:11:08;1.10;99.90
16700;DHT22;8466;52.286;21.124;2023-02-23T07:13:37;1.10;99.90
16700;DHT22;8466;52.286;21.124;2023-02-23T07:16:06;1.10;99.90
16700;DHT22;8466;52.286;21.124;2023-02-23T07:18:35;1.10;99.90
16700;DHT22;8466;52.286;21.124;2023-02-23T07:21:04;1.10;99.90
16700;DHT22;8466;52.286;21.124;2023-02-23T07:23:33;1.20;99.90
16700;DHT22;8466;52.286;21.124;2023-02-23T07:26:02;1.20;99.90
16700;DHT22;8466;52.286;21.124;2023-02-23T07:28:32;1.20;99.90
16700;DHT22;8466;52.286;21.124;2023-02-23T07:31:00;1.20;99.90
16700;DHT22;8466;52.286;21.124;2023-02-23T07:33:29;1.30;99.90
16700;DHT22;8466;52.286;21.124;2023-02-23T07:35:58;1.30;99.90
16700;DHT22;8466;52.286;21.124;2023-02-23T07:38:27;1.30;99.90
16700;DHT22;8466;52.286;21.124;2023-02-23T07:40:56;1.30;99.90
16700;DHT22;8466;52.286;21.124;2023-02-23T07:43:25;1.30;99.90
16700;DHT22;8466;52.286;21.124;2023-02-23T07:45:58;1.40;99.90
16700;DHT22;8466;52.286;21.124;2023-02-23T07:48:27;1.50;99.90
16700;DHT22;8466;52.286;21.124;2023-02-23T07:50:56;1.60;99.90
16700;DHT22;8466;52.286;21.124;2023-02-23T07:53:24;1.90;99.90
16700;DHT22;8466;52.286;21.124;2023-02-23T07:55:57;1.80;99.90
16700;DHT22;8466;52.286;21.124;2023-02-23T07:58:27;1.90;99.90
16700;DHT22;8466;52.286;21.124;2023-02-23T08:00:58;2.00;99.90
16700;DHT22;8466;52.286;21.124;2023-02-23T08:03:27;2.10;99.90
16700;DHT22;8466;52.286;21.124;2023-02-23T08:05:56;2.10;99.90
16700;DHT22;8466;52.286;21.124;2023-02-23T08:08:25;2.10;99.90
16700;DHT22;8466;52.286;21.124;2023-02-23T08:10:59;2.10;99.90
16700;DHT22;8466;52.286;21.124;2023-02-23T08:13:28;2.20;99.90
16700;DHT22;8466;52.286;21.124;2023-02-23T08:15:59;2.40;99.90
16700;DHT22;8466;52.286;21.124;2023-02-23T08:18:28;2.50;99.90
16700;DHT22;8466;52.286;21.124;2023-02-23T08:20:57;2.50;99.90
16700;DHT22;8466;52.286;21.124;2023-02-23T08:23:28;2.60;99.90
16700;DHT22;8466;52.286;21.124;2023-02-23T08:25:57;2.60;99.90
16700;DHT22;8466;52.286;21.124;2023-02-23T08:28:27;2.60;99.90
16700;DHT22;8466;52.286;21.124;2023-02-23T08:30:56;2.50;99.90
16700;DHT22;8466;52.286;21.124;2023-02-23T08:33:27;2.50;99.90
16700;DHT22;8466;52.286;21.124;2023-02-23T08:35:58;2.40;99.90
16700;DHT22;8466;52.286;21.124;2023-02-23T08:38:29;2.60;99.90
16700;DHT22;8466;52.286;21.124;2023-02-23T08:40:59;2.70;99.90
16700;DHT22;8466;52.286;21.124;2023-02-23T08:43:28;2.90;99.90
16700;DHT22;8466;52.286;21.124;2023-02-23T08:45:57;2.90;99.90
16700;DHT22;8466;52.286;21.124;2023-02-23T08:48:27;3.00;99.90
16700;DHT22;8466;52.286;21.124;2023-02-23T08:50:56;3.00;99.90
16700;DHT22;8466;52.286;21.124;2023-02-23T08:53:24;3.00;99.90
16700;DHT22;8466;52.286;21.124;2023-02-23T08:55:56;2.90;99.90
16700;DHT22;8466;52.286;21.124;2023-02-23T08:58:25;2.90;99.90
16700;DHT22;8466;52.286;21.124;2023-02-23T09:00:54;2.90;99.90
16700;DHT22;8466;52.286;21.124;2023-02-23T09:03:23;2.80;99.90
16700;DHT22;8466;52.286;21.124;2023-02-23T09:06:05;2.90;99.90
16700;DHT22;8466;52.286;21.124;2023-02-23T09:08:34;2.90;99.90
16700;DHT22;8466;52.286;21.124;2023-02-23T09:11:03;3.00;99.90
16700;DHT22;8466;52.286;21.124;2023-02-23T09:13:32;3.00;99.90
16700;DHT22;8466;52.286;21.124;2023-02-23T09:16:00;3.10;99.90
16700;DHT22;8466;52.286;21.124;2023-02-23T09:18:30;3.10;99.90
16700;DHT22;8466;52.286;21.124;2023-02-23T09:21:02;3.20;99.90
16700;DHT22;8466;52.286;21.124;2023-02-23T09:23:33;3.30;99.90
16700;DHT22;8466;52.286;21.124;2023-02-23T09:26:02;3.40;99.90
16700;DHT22;8466;52.286;21.124;2023-02-23T09:28:32;3.40;99.90
16700;DHT22;8466;52.286;21.124;2023-02-23T09:31:04;3.60;99.90
16700;DHT22;8466;52.286;21.124;2023-02-23T09:33:33;3.80;99.90
16700;DHT22;8466;52.286;21.124;2023-02-23T09:36:07;3.90;99.90
16700;DHT22;8466;52.286;21.124;2023-02-23T09:38:38;4.00;99.90
16700;DHT22;8466;52.286;21.124;2023-02-23T09:44:25;4.10;99.90
16700;DHT22;8466;52.286;21.124;2023-02-23T09:47:04;4.10;99.90
16700;DHT22;8466;52.286;21.124;2023-02-23T09:49:40;4.10;99.90
16700;DHT22;8466;52.286;21.124;2023-02-23T09:52:15;4.10;99.90
16700;DHT22;8466;52.286;21.124;2023-02-23T09:54:45;4.10;99.90
16700;DHT22;8466;52.286;21.124;2023-02-23T09:57:17;4.10;99.90
16700;DHT22;8466;52.286;21.124;2023-02-23T09:59:47;4.20;99.90
16700;DHT22;8466;52.286;21.124;2023-02-23T10:02:22;4.20;99.90
16700;DHT22;8466;52.286;21.124;2023-02-23T10:04:56;4.30;99.90
16700;DHT22;8466;52.286;21.124;2023-02-23T10:07:35;4.40;99.90
16700;DHT22;8466;52.286;21.124;2023-02-23T10:10:21;4.50;99.90
16700;DHT22;8466;52.286;21.124;2023-02-23T10:13:02;4.50;99.90
16700;DHT22;8466;52.286;21.124;2023-02-23T10:15:36;4.70;99.90
16700;DHT22;8466;52.286;21.124;2023-02-23T10:18:17;4.90;99.90
16700;DHT22;8466;52.286;21.124;2023-02-23T10:20:53;4.90;99.90
16700;DHT22;8466;52.286;21.124;2023-02-23T10:23:31;5.00;99.90
16700;DHT22;8466;52.286;21.124;2023-02-23T10:26:01;5.10;99.90
16700;DHT22;8466;52.286;21.124;2023-02-23T10:28:35;5.20;99.90
16700;DHT22;8466;52.286;21.124;2023-02-23T10:31:19;5.30;99.90
16700;DHT22;8466;52.286;21.124;2023-02-23T10:33:51;5.40;99.90
16700;DHT22;8466;52.286;21.124;2023-02-23T10:36:30;5.50;99.90
16700;DHT22;8466;52.286;21.124;2023-02-23T10:39:04;5.50;99.90
16700;DHT22;8466;52.286;21.124;2023-02-23T10:41:34;5.60;99.90
16700;DHT22;8466;52.286;21.124;2023-02-23T10:44:04;5.70;99.90
16700;DHT22;8466;52.286;21.124;2023-02-23T10:46:43;5.70;99.90
16700;DHT22;8466;52.286;21.124;2023-02-23T10:49:18;5.70;99.90
16700;DHT22;8466;52.286;21.124;2023-02-23T10:51:49;5.70;99.90
16700;DHT22;8466;52.286;21.124;2023-02-23T10:54:40;5.80;99.90
16700;DHT22;8466;52.286;21.124;2023-02-23T10:57:18;5.70;99.90
16700;DHT22;8466;52.286;21.124;2023-02-23T11:03:00;5.60;99.90
16700;DHT22;8466;52.286;21.124;2023-02-23T11:05:44;5.50;99.90
16700;DHT22;8466;52.286;21.124;2023-02-23T11:08:31;5.50;99.90
16700;DHT22;8466;52.286;21.124;2023-02-23T11:11:05;5.50;99.90
16700;DHT22;8466;52.286;21.124;2023-02-23T11:13:39;5.50;99.90
16700;DHT22;8466;52.286;21.124;2023-02-23T11:16:11;5.60;99.90
16700;DHT22;8466;52.286;21.124;2023-02-23T11:18:41;5.60;99.90
16700;DHT22;8466;52.286;21.124;2023-02-23T11:21:12;5.60;99.90
16700;DHT22;8466;52.286;21.124;2023-02-23T11:23:45;5.60;99.90
16700;DHT22;8466;52.286;21.124;2023-02-23T11:26:32;5.70;99.90
16700;DHT22;8466;52.286;21.124;2023-02-23T11:29:13;5.80;99.90
16700;DHT22;8466;52.286;21.124;2023-02-23T11:31:47;5.90;99.90
16700;DHT22;8466;52.286;21.124;2023-02-23T11:34:22;6.00;99.90
16700;DHT22;8466;52.286;21.124;2023-02-23T11:37:01;6.10;99.90
16700;DHT22;8466;52.286;21.124;2023-02-23T11:39:30;6.00;99.90
16700;DHT22;8466;52.286;21.124;2023-02-23T11:42:22;6.00;99.90
16700;DHT22;8466;52.286;21.124;2023-02-23T11:45:00;6.00;99.90
16700;DHT22;8466;52.286;21.124;2023-02-23T11:47:31;6.00;99.90
16700;DHT22;8466;52.286;21.124;2023-02-23T11:50:02;6.00;99.90
16700;DHT22;8466;52.286;21.124;2023-02-23T11:52:33;6.00;99.90
16700;DHT22;8466;52.286;21.124;2023-02-23T11:55:05;6.10;99.90
16700;DHT22;8466;52.286;21.124;2023-02-23T11:57:36;6.10;99.90
16700;DHT22;8466;52.286;21.124;2023-02-23T12:00:12;6.20;99.90
16700;DHT22;8466;52.286;21.124;2023-02-23T12:02:49;6.40;99.90
16700;DHT22;8466;52.286;21.124;2023-02-23T12:05:22;6.50;99.90
16700;DHT22;8466;52.286;21.124;2023-02-23T12:07:55;6.50;99.90
16700;DHT22;8466;52.286;21.124;2023-02-23T12:10:28;6.50;99.90
16700;DHT22;8466;52.286;21.124;2023-02-23T12:13:07;6.60;99.90
16700;DHT22;8466;52.286;21.124;2023-02-23T12:15:43;6.60;99.90
16700;DHT22;8466;52.286;21.124;2023-02-23T12:18:21;6.70;99.90
16700;DHT22;8466;52.286;21.124;2023-02-23T12:20:56;6.70;99.90
16700;DHT22;8466;52.286;21.124;2023-02-23T12:23:30;6.70;99.90
16700;DHT22;8466;52.286;21.124;2023-02-23T12:26:04;6.80;99.90
16700;DHT22;8466;52.286;21.124;2023-02-23T12:28:37;6.80;99.90
16700;DHT22;8466;52.286;21.124;2023-02-23T12:31:20;6.80;99.90
16700;DHT22;8466;52.286;21.124;2023-02-23T12:33:54;6.70;99.90
16700;DHT22;8466;52.286;21.124;2023-02-23T12:36:29;6.70;99.90
16700;DHT22;8466;52.286;21.124;2023-02-23T12:39:05;6.70;99.90
16700;DHT22;8466;52.286;21.124;2023-02-23T12:41:38;6.60;99.90
16700;DHT22;8466;52.286;21.124;2023-02-23T12:44:19;6.60;99.90
16700;DHT22;8466;52.286;21.124;2023-02-23T12:46:51;6.70;99.90
16700;DHT22;8466;52.286;21.124;2023-02-23T12:49:27;6.60;99.90
16700;DHT22;8466;52.286;21.124;2023-02-23T12:52:03;6.70;99.90
16700;DHT22;8466;52.286;21.124;2023-02-23T12:54:36;6.70;99.90
16700;DHT22;8466;52.286;21.124;2023-02-23T12:57:12;6.70;99.90
16700;DHT22;8466;52.286;21.124;2023-02-23T13:02:59;6.80;99.90
16700;DHT22;8466;52.286;21.124;2023-02-23T13:05:38;6.80;99.90
16700;DHT22;8466;52.286;21.124;2023-02-23T13:08:17;6.80;99.90
16700;DHT22;8466;52.286;21.124;2023-02-23T13:10:56;6.80;99.90
16700;DHT22;8466;52.286;21.124;2023-02-23T13:13:35;6.80;99.90
16700;DHT22;8466;52.286;21.124;2023-02-23T13:16:10;6.80;99.90
16700;DHT22;8466;52.286;21.124;2023-02-23T13:18:47;6.70;99.90
16700;DHT22;8466;52.286;21.124;2023-02-23T13:21:23;6.80;99.90
16700;DHT22;8466;52.286;21.124;2023-02-23T13:23:57;6.80;99.90
16700;DHT22;8466;52.286;21.124;2023-02-23T13:26:33;6.90;99.90
16700;DHT22;8466;52.286;21.124;2023-02-23T13:29:09;6.90;99.90
16700;DHT22;8466;52.286;21.124;2023-02-23T13:31:42;6.90;99.90
16700;DHT22;8466;52.286;21.124;2023-02-23T13:34:20;6.90;99.90
16700;DHT22;8466;52.286;21.124;2023-02-23T13:36:52;7.00;99.90
16700;DHT22;8466;52.286;21.124;2023-02-23T13:39:42;7.00;99.90
16700;DHT22;8466;52.286;21.124;2023-02-23T13:42:32;7.00;99.90
16700;DHT22;8466;52.286;21.124;2023-02-23T13:45:29;7.00;99.90
16700;DHT22;8466;52.286;21.124;2023-02-23T13:48:04;7.00;99.90
16700;DHT22;8466;52.286;21.124;2023-02-23T13:50:41;7.00;99.90
16700;DHT22;8466;52.286;21.124;2023-02-23T13:53:31;7.00;99.90
16700;DHT22;8466;52.286;21.124;2023-02-23T13:56:03;6.90;99.90
16700;DHT22;8466;52.286;21.124;2023-02-23T13:58:34;6.80;99.90
16700;DHT22;8466;52.286;21.124;2023-02-23T14:01:09;6.70;99.90
16700;DHT22;8466;52.286;21.124;2023-02-23T14:03:45;6.80;99.90
16700;DHT22;8466;52.286;21.124;2023-02-23T14:06:17;6.80;99.90
16700;DHT22;8466;52.286;21.124;2023-02-23T14:08:52;6.70;99.90
16700;DHT22;8466;52.286;21.124;2023-02-23T14:14:38;6.60;99.90
16700;DHT22;8466;52.286;21.124;2023-02-23T14:20:11;6.60;99.90
16700;DHT22;8466;52.286;21.124;2023-02-23T14:23:26;6.50;99.90
16700;DHT22;8466;52.286;21.124;2023-02-23T14:29:09;6.50;99.90
16700;DHT22;8466;52.286;21.124;2023-02-23T14:31:53;6.40;99.90
16700;DHT22;8466;52.286;21.124;2023-02-23T14:34:22;6.30;99.90
16700;DHT22;8466;52.286;21.124;2023-02-23T14:36:51;6.30;99.90
16700;DHT22;8466;52.286;21.124;2023-02-23T14:39:25;6.30;99.90
16700;DHT22;8466;52.286;21.124;2023-02-23T14:41:57;6.20;99.90
16700;DHT22;8466;52.286;21.124;2023-02-23T14:44:28;6.20;99.90
16700;DHT22;8466;52.286;21.124;2023-02-23T14:47:01;6.10;99.90
16700;DHT22;8466;52.286;21.124;2023-02-23T14:49:33;6.10;99.90
16700;DHT22;8466;52.286;21.124;2023-02-23T14:52:06;6.00;99.90
16700;DHT22;8466;52.286;21.124;2023-02-23T14:54:38;6.00;99.90
16700;DHT22;8466;52.286;21.124;2023-02-23T14:57:17;6.00;99.90
16700;DHT22;8466;52.286;21.124;2023-02-23T14:59:52;5.80;99.90
16700;DHT22;8466;52.286;21.124;2023-02-23T15:02:23;5.80;99.90
16700;DHT22;8466;52.286;21.124;2023-02-23T15:04:52;5.70;99.90
16700;DHT22;8466;52.286;21.124;2023-02-23T15:07:27;5.70;99.90
16700;DHT22;8466;52.286;21.124;2023-02-23T15:10:01;5.60;99.90
16700;DHT22;8466;52.286;21.124;2023-02-23T15:12:35;5.60;99.90
16700;DHT22;8466;52.286;21.124;2023-02-23T15:15:12;5.60;99.90
16700;DHT22;8466;52.286;21.124;2023-02-23T15:17:46;5.60;99.90
16700;DHT22;8466;52.286;21.124;2023-02-23T15:20:16;5.60;99.90
16700;DHT22;8466;52.286;21.124;2023-02-23T15:22:51;5.60;99.90
16700;DHT22;8466;52.286;21.124;2023-02-23T15:25:33;5.60;99.90
16700;DHT22;8466;52.286;21.124;2023-02-23T15:28:26;5.50;99.90
16700;DHT22;8466;52.286;21.124;2023-02-23T15:30:58;5.40;99.90
16700;DHT22;8466;52.286;21.124;2023-02-23T15:33:39;5.40;99.90
16700;DHT22;8466;52.286;21.124;2023-02-23T15:36:14;5.30;99.90
16700;DHT22;8466;52.286;21.124;2023-02-23T15:38:49;5.30;99.90
16700;DHT22;8466;52.286;21.124;2023-02-23T15:41:26;5.20;99.90
16700;DHT22;8466;52.286;21.124;2023-02-23T15:44:02;5.10;99.90
16700;DHT22;8466;52.286;21.124;2023-02-23T15:46:33;5.00;99.90
16700;DHT22;8466;52.286;21.124;2023-02-23T15:49:04;4.90;99.90
16700;DHT22;8466;52.286;21.124;2023-02-23T15:51:35;4.80;99.90
16700;DHT22;8466;52.286;21.124;2023-02-23T15:54:17;4.70;99.90
16700;DHT22;8466;52.286;21.124;2023-02-23T15:56:49;4.50;99.90
16700;DHT22;8466;52.286;21.124;2023-02-23T15:59:24;4.50;99.90
16700;DHT22;8466;52.286;21.124;2023-02-23T16:01:56;4.40;99.90
16700;DHT22;8466;52.286;21.124;2023-02-23T16:04:30;4.30;99.90
16700;DHT22;8466;52.286;21.124;2023-02-23T16:07:12;4.20;99.90
16700;DHT22;8466;52.286;21.124;2023-02-23T16:09:48;4.20;99.90
16700;DHT22;8466;52.286;21.124;2023-02-23T16:12:22;4.10;99.90
16700;DHT22;8466;52.286;21.124;2023-02-23T16:14:53;4.10;99.90
16700;DHT22;8466;52.286;21.124;2023-02-23T16:17:27;3.90;99.90
16700;DHT22;8466;52.286;21.124;2023-02-23T16:20:13;3.90;99.90
16700;DHT22;8466;52.286;21.124;2023-02-23T16:22:44;3.90;99.90
16700;DHT22;8466;52.286;21.124;2023-02-23T16:25:15;3.80;99.90
16700;DHT22;8466;52.286;21.124;2023-02-23T16:27:52;3.80;99.90
16700;DHT22;8466;52.286;21.124;2023-02-23T16:30:34;3.60;99.90
16700;DHT22;8466;52.286;21.124;2023-02-23T16:33:12;3.60;99.90
16700;DHT22;8466;52.286;21.124;2023-02-23T16:35:47;3.50;99.90
16700;DHT22;8466;52.286;21.124;2023-02-23T16:38:22;3.50;99.90
16700;DHT22;8466;52.286;21.124;2023-02-23T16:40:51;3.40;99.90
16700;DHT22;8466;52.286;21.124;2023-02-23T16:43:22;3.30;99.90
16700;DHT22;8466;52.286;21.124;2023-02-23T16:45:50;3.20;99.90
16700;DHT22;8466;52.286;21.124;2023-02-23T16:48:19;3.20;99.90
16700;DHT22;8466;52.286;21.124;2023-02-23T16:50:49;3.20;99.90
16700;DHT22;8466;52.286;21.124;2023-02-23T16:53:17;3.20;99.90
16700;DHT22;8466;52.286;21.124;2023-02-23T16:55:51;3.20;99.90
16700;DHT22;8466;52.286;21.124;2023-02-23T16:58:23;3.10;99.90